createdAt,value
2023-03-08T00:02:42.438Z,3.50
2023-03-08T00:05:44.303Z,2.65
2023-03-08T00:08:48.309Z,2.33
2023-03-08T00:11:49.826Z,1.40
2023-03-08T00:14:51.698Z,2.65
2023-03-08T00:17:53.195Z,1.80
2023-03-08T00:21:12.715Z,2.25
2023-03-08T00:24:16.616Z,2.13
2023-03-08T00:27:18.081Z,1.63
2023-03-08T00:30:19.797Z,2.53
2023-03-08T00:33:22.165Z,3.08
2023-03-08T00:36:23.711Z,1.95
2023-03-08T00:39:25.214Z,2.42
2023-03-08T00:42:26.843Z,3.55
2023-03-08T00:45:28.347Z,3.45
2023-03-08T00:48:29.895Z,1.77
2023-03-08T00:51:31.389Z,2.20
2023-03-08T00:54:33.172Z,2.20
2023-03-08T00:57:34.714Z,2.60
2023-03-08T01:00:36.231Z,2.15
2023-03-08T01:03:37.768Z,2.05
2023-03-08T01:06:40.086Z,1.88
2023-03-08T01:09:44.948Z,2.10
2023-03-08T01:12:48.552Z,1.70
2023-03-08T01:15:50.201Z,2.28
2023-03-08T01:18:52.633Z,2.35
2023-03-08T01:21:54.741Z,2.22
2023-03-08T01:24:56.315Z,1.05
2023-03-08T01:27:57.830Z,2.35
2023-03-08T01:31:03.190Z,1.85
2023-03-08T01:34:04.681Z,1.90
2023-03-08T01:37:06.584Z,2.15
2023-03-08T01:40:10.027Z,2.10
2023-03-08T01:43:29.365Z,1.65
2023-03-08T01:46:35.669Z,1.13
2023-03-08T01:49:43.199Z,1.90
2023-03-08T01:52:48.518Z,1.77
2023-03-08T01:55:50.053Z,2.17
2023-03-08T01:58:52.548Z,2.92
2023-03-08T02:01:54.026Z,1.50
2023-03-08T02:04:56.551Z,2.28
2023-03-08T02:07:59.260Z,1.25
2023-03-08T02:11:05.563Z,1.67
2023-03-08T02:14:08.485Z,2.60
2023-03-08T02:17:12.013Z,1.55
2023-03-08T02:20:32.849Z,1.70
2023-03-08T02:26:42.298Z,2.90
2023-03-08T02:29:44.322Z,1.67
2023-03-08T02:32:45.938Z,1.77
2023-03-08T02:35:47.615Z,1.40
2023-03-08T02:38:49.144Z,2.80
2023-03-08T02:41:50.653Z,1.75
2023-03-08T02:44:52.162Z,1.67
2023-03-08T02:47:53.661Z,1.95
2023-03-08T02:50:55.292Z,1.15
2023-03-08T02:53:56.817Z,1.27
2023-03-08T02:56:58.447Z,2.17
2023-03-08T03:00:00.046Z,1.35
2023-03-08T03:03:02.975Z,2.00
2023-03-08T03:06:04.848Z,1.67
2023-03-08T03:09:10.093Z,1.52
2023-03-08T03:12:12.257Z,2.05
2023-03-08T03:15:15.782Z,1.50
2023-03-08T03:18:19.625Z,1.95
2023-03-08T03:21:21.857Z,1.40
2023-03-08T03:24:23.376Z,1.25
2023-03-08T03:27:28.609Z,2.97
2023-03-08T03:30:31.225Z,1.90
2023-03-08T03:33:35.103Z,1.30
2023-03-08T03:36:37.205Z,3.20
2023-03-08T03:39:39.855Z,1.63
2023-03-08T03:42:44.252Z,2.05
2023-03-08T03:45:56.018Z,2.42
2023-03-08T03:48:58.624Z,1.35
2023-03-08T03:52:05.744Z,1.15
2023-03-08T03:55:14.362Z,1.25
2023-03-08T03:58:17.082Z,1.77
2023-03-08T04:01:28.902Z,1.65
2023-03-08T04:04:37.056Z,1.67
2023-03-08T04:07:39.707Z,1.35
2023-03-08T04:10:42.556Z,2.38
2023-03-08T04:13:44.563Z,1.67
2023-03-08T04:16:46.408Z,2.88
2023-03-08T04:19:57.256Z,1.33
2023-03-08T04:22:59.060Z,1.63
2023-03-08T04:26:09.834Z,1.42
2023-03-08T04:29:12.436Z,1.17
2023-03-08T04:32:14.962Z,1.60
2023-03-08T04:35:24.486Z,2.15
2023-03-08T04:38:28.479Z,1.35
2023-03-08T04:41:32.362Z,1.13
2023-03-08T04:44:57.044Z,0.88
2023-03-08T04:47:59.229Z,1.75
2023-03-08T04:51:03.658Z,1.80
2023-03-08T04:54:05.313Z,1.23
2023-03-08T04:57:10.299Z,1.20
2023-03-08T05:00:13.744Z,0.98
2023-03-08T05:03:17.594Z,1.50
2023-03-08T05:06:21.067Z,1.10
2023-03-08T05:09:23.486Z,2.22
2023-03-08T05:12:26.515Z,1.00
2023-03-08T05:15:32.243Z,1.93
2023-03-08T05:18:34.175Z,0.93
2023-03-08T05:21:35.783Z,2.28
2023-03-08T05:24:40.999Z,0.80
2023-03-08T05:27:45.034Z,1.25
2023-03-08T05:30:47.848Z,0.70
2023-03-08T05:33:52.312Z,1.50
2023-03-08T05:37:01.570Z,0.60
2023-03-08T05:40:06.350Z,1.23
2023-03-08T05:43:10.906Z,1.33
2023-03-08T05:46:18.631Z,1.50
2023-03-08T05:49:20.718Z,1.30
2023-03-08T05:52:22.315Z,1.35
2023-03-08T05:55:24.640Z,1.10
2023-03-08T05:58:26.227Z,1.10
2023-03-08T06:01:28.424Z,1.23
2023-03-08T06:04:36.461Z,1.63
2023-03-08T06:07:38.198Z,0.85
2023-03-08T06:13:46.098Z,1.25
2023-03-08T06:16:48.813Z,1.27
2023-03-08T06:19:51.886Z,1.38
2023-03-08T06:22:53.892Z,0.70
2023-03-08T06:25:56.095Z,0.77
2023-03-08T06:28:57.787Z,1.20
2023-03-08T06:32:03.225Z,1.05
2023-03-08T06:35:07.137Z,0.95
2023-03-08T06:38:12.076Z,2.17
2023-03-08T06:41:16.245Z,1.73
2023-03-08T06:44:19.425Z,1.52
2023-03-08T06:47:21.068Z,1.77
2023-03-08T06:50:22.825Z,2.00
2023-03-08T06:53:25.233Z,1.13
2023-03-08T06:56:31.064Z,3.00
2023-03-08T06:59:32.656Z,3.38
2023-03-08T07:02:34.131Z,3.03
2023-03-08T07:05:35.639Z,1.23
2023-03-08T07:08:37.941Z,1.30
2023-03-08T07:11:39.959Z,0.70
2023-03-08T07:14:41.425Z,2.00
2023-03-08T07:17:43.412Z,1.13
2023-03-08T07:20:45.462Z,1.60
2023-03-08T07:23:46.944Z,1.45
2023-03-08T07:26:48.405Z,3.70
2023-03-08T07:29:50.469Z,2.13
2023-03-08T07:32:55.423Z,6.25
2023-03-08T07:36:01.487Z,2.53
2023-03-08T07:39:03.153Z,2.53
2023-03-08T07:42:05.051Z,3.28
2023-03-08T07:45:07.431Z,3.13
2023-03-08T07:48:09.032Z,3.45
2023-03-08T07:51:13.244Z,2.65
2023-03-08T07:54:17.326Z,2.30
2023-03-08T07:57:18.862Z,3.45
2023-03-08T08:00:20.788Z,2.58
2023-03-08T08:03:22.325Z,4.00
2023-03-08T08:06:23.952Z,2.88
2023-03-08T08:09:25.498Z,6.95
2023-03-08T08:12:27.044Z,3.25
2023-03-08T08:15:30.794Z,3.92
2023-03-08T08:18:32.460Z,3.60
2023-03-08T08:21:33.914Z,6.72
2023-03-08T08:24:35.743Z,9.82
2023-03-08T08:27:37.302Z,7.82
2023-03-08T08:30:38.783Z,6.80
2023-03-08T08:33:40.342Z,11.40
2023-03-08T08:36:41.889Z,8.85
2023-03-08T08:39:43.367Z,8.55
2023-03-08T08:42:44.857Z,7.47
2023-03-08T08:45:48.954Z,8.60
2023-03-08T08:48:50.519Z,7.53
2023-03-08T08:51:53.276Z,10.38
2023-03-08T08:54:54.952Z,10.63
2023-03-08T08:57:56.484Z,10.20
2023-03-08T09:00:57.953Z,8.40
2023-03-08T09:04:00.333Z,9.50
2023-03-08T09:07:01.846Z,10.18
2023-03-08T09:10:03.457Z,8.23
2023-03-08T09:13:06.120Z,6.93
2023-03-08T09:16:19.834Z,6.57
2023-03-08T09:19:21.438Z,7.72
2023-03-08T09:22:22.997Z,6.82
2023-03-08T09:25:24.640Z,8.20
2023-03-08T09:28:26.167Z,9.70
2023-03-08T09:31:27.797Z,9.05
2023-03-08T09:34:29.413Z,6.82
2023-03-08T09:37:31.482Z,9.70
2023-03-08T09:40:46.328Z,11.05
2023-03-08T09:44:16.220Z,9.05
2023-03-08T09:47:22.570Z,8.68
2023-03-08T09:50:39.304Z,6.88
2023-03-08T09:53:40.784Z,7.47
2023-03-08T09:56:51.326Z,6.22
2023-03-08T09:59:57.198Z,5.93
2023-03-08T10:03:37.227Z,8.20
2023-03-08T10:06:53.294Z,7.53
2023-03-08T10:10:05.667Z,8.57
2023-03-08T10:13:32.870Z,6.65
2023-03-08T10:16:43.623Z,6.60
2023-03-08T10:19:57.548Z,6.50
2023-03-08T10:23:12.464Z,10.40
2023-03-08T10:26:15.410Z,6.78
2023-03-08T10:29:16.890Z,6.90
2023-03-08T10:32:18.699Z,6.93
2023-03-08T10:35:32.288Z,7.38
2023-03-08T10:38:36.303Z,8.77
2023-03-08T10:41:43.708Z,10.77
2023-03-08T10:44:53.991Z,5.20
2023-03-08T10:48:02.364Z,7.03
2023-03-08T10:51:07.105Z,4.35
2023-03-08T10:54:15.124Z,3.97
2023-03-08T10:57:20.015Z,4.13
2023-03-08T11:00:42.843Z,4.05
2023-03-08T11:03:44.576Z,4.38
2023-03-08T11:06:46.292Z,3.72
2023-03-08T11:09:49.312Z,4.47
2023-03-08T11:13:01.669Z,5.65
2023-03-08T11:16:22.629Z,5.80
2023-03-08T11:19:34.886Z,4.97
2023-03-08T11:22:54.991Z,4.35
2023-03-08T11:26:20.704Z,5.65
2023-03-08T11:29:35.868Z,6.10
2023-03-08T11:33:09.790Z,5.10
2023-03-08T11:36:33.254Z,5.00
2023-03-08T11:39:49.939Z,6.30
2023-03-08T11:43:13.768Z,4.15
2023-03-08T11:46:42.491Z,3.70
2023-03-08T11:49:43.960Z,4.60
2023-03-08T11:52:51.313Z,5.60
2023-03-08T11:56:01.937Z,4.18
2023-03-08T11:59:10.889Z,5.78
2023-03-08T12:02:20.690Z,3.67
2023-03-08T12:05:36.184Z,3.83
2023-03-08T12:08:48.008Z,4.35
2023-03-08T12:11:58.549Z,5.57
2023-03-08T12:15:24.617Z,6.32
2023-03-08T12:18:31.999Z,7.53
2023-03-08T12:21:41.668Z,12.40
2023-03-08T12:24:45.911Z,26.60
2023-03-08T12:27:59.854Z,31.17
2023-03-08T12:31:35.500Z,34.35
2023-03-08T12:34:40.205Z,39.47
2023-03-08T12:37:41.806Z,39.33
2023-03-08T12:40:49.271Z,34.53
2023-03-08T12:44:23.316Z,42.25
2023-03-08T12:47:25.186Z,37.63
2023-03-08T12:50:27.159Z,38.25
2023-03-08T12:53:46.051Z,37.45
2023-03-08T12:56:54.204Z,31.52
2023-03-08T12:59:59.554Z,30.63
2023-03-08T13:03:03.282Z,34.88
2023-03-08T13:06:22.869Z,32.72
2023-03-08T13:09:32.917Z,31.48
2023-03-08T13:12:41.940Z,30.95
2023-03-08T13:15:43.527Z,29.92
2023-03-08T13:18:48.554Z,28.83
2023-03-08T13:22:16.902Z,28.73
2023-03-08T13:25:51.710Z,26.88
2023-03-08T13:28:53.590Z,24.27
2023-03-08T13:31:56.127Z,23.58
2023-03-08T13:35:03.057Z,24.70
2023-03-08T13:38:04.556Z,23.67
2023-03-08T13:41:06.058Z,18.60
2023-03-08T13:44:13.308Z,20.02
2023-03-08T13:47:34.887Z,19.27
2023-03-08T13:50:41.758Z,16.73
2023-03-08T13:53:43.613Z,17.20
2023-03-08T13:56:45.221Z,16.48
2023-03-08T13:59:52.245Z,20.17
2023-03-08T14:02:53.938Z,14.65
2023-03-08T14:05:55.541Z,15.63
2023-03-08T14:09:00.474Z,14.80
2023-03-08T14:12:07.190Z,14.43
2023-03-08T14:15:18.502Z,16.27
2023-03-08T14:18:36.673Z,16.45
2023-03-08T14:21:38.635Z,14.60
2023-03-08T14:24:42.212Z,12.45
2023-03-08T14:27:45.237Z,16.23
2023-03-08T14:30:48.812Z,11.23
2023-03-08T14:34:02.482Z,12.25
2023-03-08T14:37:26.018Z,12.68
2023-03-08T14:40:36.708Z,16.58
2023-03-08T14:43:38.313Z,13.20
2023-03-08T14:46:39.875Z,12.63
2023-03-08T14:49:41.386Z,9.70
2023-03-08T14:52:49.269Z,9.63
2023-03-08T14:55:50.710Z,11.55
2023-03-08T14:58:53.745Z,10.45
2023-03-08T15:01:55.449Z,12.30
2023-03-08T15:04:57.019Z,11.23
2023-03-08T15:08:00.364Z,9.57
2023-03-08T15:11:01.885Z,9.13
2023-03-08T15:14:03.436Z,11.73
2023-03-08T15:17:04.960Z,9.10
2023-03-08T15:20:06.872Z,8.52
2023-03-08T15:23:08.820Z,7.55
2023-03-08T15:26:17.410Z,7.85
2023-03-08T15:29:29.568Z,10.30
2023-03-08T15:32:31.078Z,7.03
2023-03-08T15:35:32.801Z,8.77
2023-03-08T15:38:34.421Z,8.43
2023-03-08T15:41:35.900Z,6.95
2023-03-08T15:44:37.405Z,7.78
2023-03-08T15:47:39.088Z,8.25
2023-03-08T15:50:41.246Z,11.20
2023-03-08T15:53:42.750Z,7.00
2023-03-08T15:56:44.240Z,9.60
2023-03-08T15:59:45.955Z,7.00
2023-03-08T16:02:47.835Z,7.07
2023-03-08T16:05:49.341Z,9.75
2023-03-08T16:08:50.925Z,8.05
2023-03-08T16:11:52.370Z,8.48
2023-03-08T16:15:00.106Z,5.45
2023-03-08T16:18:01.631Z,7.43
2023-03-08T16:21:08.785Z,8.30
2023-03-08T16:24:11.072Z,6.65
2023-03-08T16:27:12.607Z,6.10
2023-03-08T16:30:14.350Z,5.72
2023-03-08T16:33:17.963Z,6.32
2023-03-08T16:36:19.734Z,7.63
2023-03-08T16:39:21.627Z,5.90
2023-03-08T16:42:23.188Z,5.97
2023-03-08T16:45:24.927Z,6.57
2023-03-08T16:48:27.836Z,7.53
2023-03-08T16:51:30.630Z,4.97
2023-03-08T16:54:32.193Z,4.72
2023-03-08T16:57:33.711Z,5.80
2023-03-08T17:00:35.165Z,7.10
2023-03-08T17:03:38.463Z,7.95
2023-03-08T17:06:43.893Z,6.00
2023-03-08T17:09:46.281Z,5.55
2023-03-08T17:12:47.861Z,6.00
2023-03-08T17:15:49.419Z,5.50
2023-03-08T17:18:51.610Z,5.43
2023-03-08T17:21:53.391Z,4.10
2023-03-08T17:24:54.912Z,6.40
2023-03-08T17:27:56.509Z,4.53
2023-03-08T17:30:58.866Z,4.45
2023-03-08T17:34:00.350Z,5.35
2023-03-08T17:37:01.846Z,3.75
2023-03-08T17:40:03.768Z,4.60
2023-03-08T17:43:05.335Z,5.45
2023-03-08T17:46:12.226Z,3.72
2023-03-08T17:49:13.954Z,4.57
2023-03-08T17:52:15.783Z,6.47
2023-03-08T17:55:17.364Z,5.22
2023-03-08T17:58:19.818Z,4.30
2023-03-08T18:01:24.143Z,4.05
2023-03-08T18:04:26.113Z,4.10
2023-03-08T18:07:29.006Z,4.13
2023-03-08T18:10:30.601Z,4.45
2023-03-08T18:13:32.047Z,4.30
2023-03-08T18:16:34.531Z,4.50
2023-03-08T18:19:36.083Z,6.32
2023-03-08T18:22:38.390Z,3.78
2023-03-08T18:25:40.533Z,3.80
2023-03-08T18:28:42.131Z,5.82
2023-03-08T18:31:43.738Z,5.90
2023-03-08T18:34:45.781Z,8.10
2023-03-08T18:37:47.331Z,4.85
2023-03-08T18:40:48.804Z,5.50
2023-03-08T18:43:51.214Z,4.70
2023-03-08T18:46:52.980Z,5.82
2023-03-08T18:49:54.526Z,6.15
2023-03-08T18:52:56.559Z,6.30
2023-03-08T18:56:00.666Z,4.72
2023-03-08T18:59:05.742Z,5.82
2023-03-08T19:02:07.419Z,5.85
2023-03-08T19:05:09.185Z,6.03
2023-03-08T19:08:10.695Z,5.82
2023-03-08T19:11:18.888Z,5.00
2023-03-08T19:14:20.352Z,4.28
2023-03-08T19:17:21.799Z,3.85
2023-03-08T19:20:24.742Z,6.38
2023-03-08T19:23:26.304Z,3.65
2023-03-08T19:26:36.139Z,4.60
2023-03-08T19:29:37.663Z,3.65
2023-03-08T19:32:40.988Z,4.20
2023-03-08T19:35:43.698Z,5.13
2023-03-08T19:38:45.213Z,4.80
2023-03-08T19:41:49.137Z,6.90
2023-03-08T19:44:52.569Z,4.82
2023-03-08T19:47:54.030Z,7.72
2023-03-08T19:50:55.870Z,5.38
2023-03-08T19:53:57.430Z,5.25
2023-03-08T19:56:59.741Z,6.55
2023-03-08T20:00:01.371Z,4.22
2023-03-08T20:03:15.489Z,5.05
2023-03-08T20:06:26.076Z,4.75
2023-03-08T20:09:27.870Z,5.63
2023-03-08T20:12:29.346Z,3.35
2023-03-08T20:15:32.081Z,5.07
2023-03-08T20:18:33.749Z,4.75
2023-03-08T20:21:35.290Z,6.45
2023-03-08T20:24:36.814Z,6.15
2023-03-08T20:27:40.300Z,5.43
2023-03-08T20:30:41.803Z,4.38
2023-03-08T20:33:44.343Z,6.93
2023-03-08T20:36:47.320Z,5.80
2023-03-08T20:39:52.915Z,4.72
2023-03-08T20:42:57.808Z,4.73
2023-03-08T20:46:05.721Z,4.40
2023-03-08T20:49:07.331Z,7.80
2023-03-08T20:52:09.671Z,5.25
2023-03-08T20:55:11.339Z,5.38
2023-03-08T20:58:12.800Z,3.50
2023-03-08T21:01:20.769Z,3.50
2023-03-08T21:04:23.345Z,3.83
2023-03-08T21:07:24.820Z,3.50
2023-03-08T21:10:26.364Z,5.65
2023-03-08T21:13:27.863Z,5.03
2023-03-08T21:16:30.477Z,4.07
2023-03-08T21:19:32.034Z,5.63
2023-03-08T21:22:33.553Z,3.45
2023-03-08T21:25:35.741Z,3.30
2023-03-08T21:28:37.225Z,3.80
2023-03-08T21:31:44.717Z,4.07
2023-03-08T21:34:46.189Z,2.95
2023-03-08T21:37:47.723Z,2.95
2023-03-08T21:40:49.193Z,4.22
2023-03-08T21:43:51.091Z,3.38
2023-03-08T21:46:53.281Z,4.97
2023-03-08T21:49:54.874Z,3.15
2023-03-08T21:52:56.340Z,3.75
2023-03-08T21:55:57.884Z,2.75
2023-03-08T21:58:59.331Z,3.72
2023-03-08T22:02:00.878Z,2.65
2023-03-08T22:05:03.960Z,2.17
2023-03-08T22:08:05.445Z,3.53
2023-03-08T22:11:06.990Z,3.58
2023-03-08T22:14:08.512Z,3.00
2023-03-08T22:17:10.003Z,2.25
2023-03-08T22:20:12.266Z,5.15
2023-03-08T22:23:13.828Z,5.50
2023-03-08T22:26:15.375Z,3.47
2023-03-08T22:29:16.844Z,4.53
2023-03-08T22:32:18.714Z,4.72
2023-03-08T22:35:21.408Z,3.65
2023-03-08T22:38:22.930Z,3.78
2023-03-08T22:41:26.941Z,4.68
2023-03-08T22:44:28.449Z,3.10
2023-03-08T22:47:30.029Z,3.20
2023-03-08T22:50:31.504Z,3.42
2023-03-08T22:53:33.050Z,3.03
2023-03-08T22:56:35.127Z,3.30
2023-03-08T22:59:36.754Z,2.65
2023-03-08T23:02:38.208Z,3.50
2023-03-08T23:05:39.739Z,3.00
2023-03-08T23:08:41.336Z,2.95
2023-03-08T23:11:43.185Z,3.63
2023-03-08T23:14:45.408Z,3.22
2023-03-08T23:17:47.012Z,2.72
2023-03-08T23:20:48.532Z,3.33
2023-03-08T23:23:50.328Z,6.72
2023-03-08T23:26:54.081Z,3.03
2023-03-08T23:29:55.555Z,3.40
2023-03-08T23:32:57.020Z,2.22
2023-03-08T23:35:58.622Z,2.25
2023-03-08T23:39:02.517Z,2.78
2023-03-08T23:42:05.830Z,2.08
2023-03-08T23:45:08.030Z,2.00
2023-03-08T23:48:09.979Z,2.83
2023-03-08T23:51:14.436Z,3.70
2023-03-08T23:54:15.906Z,2.97
2023-03-08T23:57:17.422Z,3.20
